Decoded Metar for SARL (PASO DE LOS LIBRES in ARGENTINA) (IATA:AOL) | Meteo·Mobile Aviation Weather
aviador You're here:

SARL Decoded Metar

PASO DE LOS LIBRES in ARGENTINA
Report Time2018-08-18 15:00:00
UTC Time2018-08-18 15:44:10
Flight Rules vfr VFR
Wind050° at 09 kt
W.Decomp.*RWY 36: 4.4 kt HW 7.9 kt RCW
W.Rank050° ranks 4
Current wind is above 050° avg. (7.0)
Visibility9999 m
Phenomena:N/A
Clouds:N/A
Expected CloudBase > 4,000 ft AGL from Temp-Dew spread
CeilingNone
Temp25°C (ISA +10)
Dew Point15°C (54% RH)
AAT23.4°C
QNH1017 hPa
Density Alt1,535 ft
Elevation230 ft
Report Wrong Elevation
Raw Report
METAR SARL 181500Z 05009KT CAVOK 25/15 Q1017=

Extra information for SARL:More info

Metar Taf Metar & Taf Last 4 Metars F.Rules Stats Wind Profile Meteogram Temp Stats Airport Information Weather charts Add Link Nearby VenuesMetar ALERT Operation Metar Decoded Social comments